Latest Weather Observations for Charleville

IDQ60801

Issued at 11:02 pm EST Friday 27 March 2015 (issued every 30 minutes, with the page automatically refreshed every 10 minutes)

About weather observations | Map of weather stations | Latest weather observations for QLD | Other Formats
Station Details ID: 044021 Name: CHARLEVILLE AERO Lat: -26.41 Lon: 146.26 Height: 301.6 m
Data from the previous 72 hours. | See also: Recent months at Charleville
Date/Time
EST
Temp
°C
App
Temp
°C
Dew
Point
Rel
Hum
%
Delta-T
°C
Wind Press
QNH
hPa
Press
MSL
hPa
Rain
since 9 am
mm
Dir
 
Spd
km/h
Gust
km/h
Spd
kts
Gust
kts
27/11:00pm 19.8 15.5 -1.3 24 9.2 S 11 11 6 6 1020.8 - 0.0
27/10:30pm 20.5 16.7 -0.9 23 9.4 S 9 11 5 6 1020.7 - 0.0
27/10:00pm 21.6 17.3 -1.3 21 10.2 SSE 11 13 6 7 1020.7 - 0.0
27/09:30pm 22.3 17.7 -1.4 20 10.6 SSE 13 15 7 8 1020.7 - 0.0
27/09:00pm 23.0 18.3 -2.0 19 11.0 SSE 13 17 7 9 1020.6 1019.2 0.0
27/08:30pm 23.5 18.0 -2.0 18 11.3 SSE 17 20 9 11 1020.5 - 0.0
27/08:00pm 23.9 19.0 -0.5 20 11.2 S 15 17 8 9 1020.3 - 0.0
27/07:30pm 24.4 20.0 0.2 20 11.3 SSE 13 15 7 8 1019.9 - 0.0
27/07:00pm 25.3 21.4 1.1 20 11.5 SSE 11 15 6 8 1019.6 - 0.0
27/06:30pm 26.6 21.8 0.3 18 12.5 SSE 15 19 8 10 1019.2 - 0.0
27/06:00pm 27.6 21.8 -0.3 16 13.2 SSE 20 26 11 14 1018.9 1017.4 0.0
27/05:30pm 28.5 22.7 -0.2 15 13.7 S 20 28 11 15 1018.7 - 0.0
27/05:00pm 29.1 23.9 -0.2 15 14.1 S 17 26 9 14 1018.6 - 0.0
27/04:30pm 29.4 24.7 1.0 16 13.9 SE 15 19 8 10 1018.5 - 0.0
27/04:00pm 29.8 24.2 0.0 14 14.4 S 19 30 10 16 1018.4 - 0.0
27/03:30pm 29.7 24.5 -0.1 14 14.4 SSE 17 28 9 15 1018.5 - 0.0
27/03:00pm 29.6 24.4 0.1 15 14.2 SSE 17 28 9 15 1018.6 1017.1 0.0
27/02:30pm 28.8 23.6 0.1 15 13.8 SE 17 33 9 18 1018.9 - 0.0
27/02:00pm 28.7 23.8 -0.3 15 13.8 SSE 15 24 8 13 1019.4 - 0.0
27/01:30pm 28.6 24.6 0.2 16 13.7 SE 11 28 6 15 1019.8 - 0.0
27/01:00pm 28.8 23.5 -0.4 15 13.9 SSE 17 22 9 12 1020.4 - 0.0
27/12:30pm 26.9 21.1 -1.2 16 13.0 SE 19 28 10 15 1021.0 - 0.0
27/12:00pm 26.1 20.4 -0.5 17 12.4 SSE 19 32 10 17 1021.7 1020.2 0.0
27/11:30am 25.1 19.5 -0.3 19 11.8 SSE 19 28 10 15 1022.4 - 0.0
27/11:00am 24.9 19.2 0.4 20 11.5 SSE 20 32 11 17 1022.9 - 0.0
27/10:30am 23.9 17.8 0.3 21 11.0 SE 22 30 12 16 1023.2 - 0.0
27/10:00am 23.4 16.6 0.9 22 10.6 ESE 26 33 14 18 1023.6 - 0.0
27/09:30am 22.6 15.4 0.7 23 10.2 ESE 28 32 15 17 1023.7 - 0.0
27/09:00am 21.0 15.4 0.9 26 9.2 SE 20 32 11 17 1023.6 1022.2 0.0
27/08:30am 21.1 14.3 0.8 26 9.3 SE 26 35 14 19 1023.3 - 0.0
27/08:00am 19.9 12.3 0.8 28 8.7 SSE 30 39 16 21 1023.2 - 0.0
27/07:30am 19.3 13.7 1.3 30 8.2 SSE 20 32 11 17 1023.1 - 0.0
27/07:00am 17.8 12.8 1.6 33 7.3 SSE 17 26 9 14 1022.8 - 0.0
27/06:30am 16.9 12.7 1.5 35 6.9 SSE 13 17 7 9 1022.4 - 0.0
27/06:00am 16.9 13.0 1.4 35 6.9 S 11 13 6 7 1022.1 1020.6 0.0
27/05:30am 17.4 14.0 2.1 36 7.0 S 9 13 5 7 1021.8 - 0.0
27/05:00am 17.9 13.1 0.1 30 7.9 S 15 19 8 10 1021.3 - 0.0
27/04:30am 18.2 13.4 0.2 29 8.0 S 15 20 8 11 1020.9 - 0.0
27/04:00am 18.4 13.5 -0.4 28 8.3 S 15 19 8 10 1020.5 - 0.0
27/03:30am 18.3 13.4 -0.5 28 8.2 SSE 15 19 8 10 1020.5 - 0.0
27/03:00am 18.0 13.4 -1.0 27 8.2 S 13 15 7 8 1020.6 1019.2 0.0
27/02:30am 17.9 13.3 -1.2 27 8.2 S 13 17 7 9 1020.7 - 0.0
27/02:00am 17.8 14.1 0.1 30 7.8 S 9 13 5 7 1020.7 - 0.0
27/01:30am 18.6 14.1 -0.3 28 8.3 S 13 15 7 8 1020.7 - 0.0
27/01:00am 19.4 14.3 -1.9 23 9.2 S 15 15 8 8 1020.7 - 0.0
27/12:30am 19.2 14.2 -1.2 25 8.9 S 15 17 8 9 1020.8 - 0.0
27/12:00am 19.2 15.5 0.2 28 8.5 SSE 9 11 5 6 1020.9 1019.5 0.0
 
Date/Time
EST
Temp
°C
App
Temp
°C
Dew
Point
Rel
Hum
%
Delta-T
°C
Wind Press
QNH
hPa
Press
MSL
hPa
Rain
since 9 am
mm
Dir
 
Spd
km/h
Gust
km/h
Spd
kts
Gust
kts
26/11:30pm 19.3 15.4 0.9 29 8.4 S 11 11 6 6 1020.9 - 0.0
26/11:00pm 20.6 17.0 0.7 26 9.1 SSE 9 11 5 6 1020.9 - 0.0
26/10:30pm 21.2 16.9 0.7 25 9.4 S 13 13 7 7 1021.0 - 0.0
26/10:00pm 21.8 18.3 1.0 25 9.7 SSE 9 13 5 7 1021.1 - 0.0
26/09:30pm 22.8 18.8 0.5 23 10.3 SSE 11 13 6 7 1020.8 - 0.0
26/09:00pm 23.0 18.8 1.4 24 10.2 S 13 13 7 7 1020.7 1019.3 0.0
26/08:30pm 23.7 20.3 1.6 23 10.5 SSE 9 11 5 6 1020.3 - 0.0
26/08:00pm 24.8 21.0 1.6 22 11.1 SSE 11 13 6 7 1019.9 - 0.0
26/07:30pm 25.5 21.6 1.4 20 11.6 S 11 13 6 7 1019.6 - 0.0
26/07:00pm 26.5 22.9 2.8 21 11.8 S 11 13 6 7 1019.1 - 0.0
26/06:30pm 27.7 23.0 1.0 17 13.0 SSE 15 19 8 10 1018.9 - 0.0
26/06:00pm 28.8 23.2 0.2 15 13.8 SSE 19 30 10 16 1018.5 1017.0 0.0
26/05:30pm 29.5 23.7 0.0 15 14.2 SSE 20 30 11 16 1017.9 - 0.0
26/05:00pm 30.2 24.7 0.6 15 14.5 SSE 19 32 10 17 1017.7 - 0.0
26/04:30pm 29.0 24.3 1.2 16 13.7 SSE 15 24 8 13 1017.6 - 0.0
26/04:00pm 29.2 24.0 0.4 15 14.0 SSW 17 24 9 13 1017.7 - 0.0
26/03:30pm 30.2 23.9 -0.9 13 14.9 S 22 35 12 19 1017.6 - 0.0
26/03:00pm 30.0 26.2 1.6 16 14.1 SSW 11 13 6 7 1017.8 1016.4 0.0
26/02:30pm 30.2 24.3 -0.5 13 14.8 S 20 32 11 17 1017.9 - 0.0
26/02:00pm 29.5 23.8 0.3 15 14.2 SE 20 26 11 14 1018.4 - 0.0
26/01:30pm 28.4 22.5 -2.1 13 14.1 S 19 32 10 17 1018.7 - 0.0
26/01:00pm 27.2 21.1 -2.4 14 13.5 S 20 33 11 18 1019.2 - 0.0
26/12:30pm 29.2 23.3 -0.5 14 14.2 S 20 30 11 16 1019.5 - 0.0
26/12:00pm 27.2 21.2 -1.8 15 13.3 S 20 33 11 18 1019.9 1018.4 0.0
26/11:30am 27.3 21.4 -2.0 14 13.4 S 19 24 10 13 1020.5 - 0.0
26/11:00am 26.7 19.9 -1.7 15 13.0 S 24 32 13 17 1020.6 - 0.0
26/10:30am 26.4 20.0 -2.0 15 12.9 SE 22 33 12 18 1020.9 - 0.0
26/10:00am 25.1 18.3 -2.2 16 12.3 SSE 24 33 13 18 1021.1 - 0.0
26/09:30am 24.2 17.4 -1.6 18 11.6 SSE 24 32 13 17 1021.2 - 0.0
26/09:00am 22.8 16.0 -1.9 19 10.9 SSE 24 30 13 16 1021.3 1019.9 0.0
26/08:30am 22.4 15.7 -1.2 20 10.6 SSE 24 32 13 17 1021.1 - 0.0
26/08:00am 21.8 15.4 -1.5 21 10.3 S 22 30 12 16 1020.9 - 0.0
26/07:30am 20.7 14.9 -0.4 24 9.5 S 20 28 11 15 1020.5 - 0.0
26/07:00am 20.0 14.8 -0.2 26 9.0 S 17 24 9 13 1020.2 - 0.0
26/06:30am 19.5 15.1 0.6 28 8.6 S 13 15 7 8 1019.8 - 0.0
26/06:00am 19.5 15.2 1.0 29 8.4 S 13 15 7 8 1019.4 1017.9 0.0
26/05:30am 19.5 16.1 1.6 30 8.3 S 9 13 5 7 1018.8 - 0.0
26/05:00am 20.0 16.1 1.3 28 8.6 S 11 15 6 8 1018.4 - 0.0
26/04:30am 20.2 16.5 2.3 30 8.4 S 11 13 6 7 1018.2 - 0.0
26/04:00am 20.6 16.6 2.7 30 8.5 S 13 17 7 9 1017.7 - 0.0
26/03:30am 20.3 17.0 4.5 35 7.8 S 11 13 6 7 1017.6 - 0.0
26/03:00am 21.0 17.9 5.5 36 7.8 S 11 13 6 7 1017.3 1015.9 0.0
26/02:30am 21.7 18.5 5.3 34 8.3 S 11 13 6 7 1017.4 - 0.0
26/02:00am 22.8 18.6 4.0 29 9.3 S 15 22 8 12 1017.4 - 0.0
26/01:30am 23.2 18.8 5.0 30 9.2 S 17 26 9 14 1017.7 - 0.0
26/01:00am 23.9 20.0 5.4 30 9.5 S 15 20 8 11 1017.6 - 0.0
26/12:30am 23.4 21.0 7.0 34 8.6 S 9 15 5 8 1017.5 - 0.0
26/12:00am 23.8 21.8 8.8 38 8.1 S 9 13 5 7 1017.4 1016.0 0.0
 
Date/Time
EST
Temp
°C
App
Temp
°C
Dew
Point
Rel
Hum
%
Delta-T
°C
Wind Press
QNH
hPa
Press
MSL
hPa
Rain
since 9 am
mm
Dir
 
Spd
km/h
Gust
km/h
Spd
kts
Gust
kts
25/11:30pm 24.2 22.1 8.2 36 8.6 S 9 11 5 6 1017.4 - 0.0
25/11:00pm 24.6 22.6 8.7 36 8.7 S 9 13 5 7 1017.3 - 0.0
25/10:30pm 25.4 23.4 8.7 34 9.1 S 9 11 5 6 1017.2 - 0.0
25/10:00pm 26.2 23.7 8.2 32 9.8 S 11 13 6 7 1017.0 - 0.0
25/09:30pm 27.1 24.6 8.3 30 10.3 S 11 15 6 8 1016.8 - 0.0
25/09:00pm 27.9 24.9 7.6 27 11.0 S 13 17 7 9 1016.5 1015.0 0.0
25/08:30pm 28.5 25.5 7.8 27 11.3 S 13 19 7 10 1016.0 - 0.0
25/08:00pm 29.4 26.2 6.9 24 12.2 S 13 19 7 10 1015.4 - 0.0
25/07:30pm 30.2 27.6 7.6 24 12.5 S 11 15 6 8 1014.9 - 0.0
25/07:00pm 30.8 27.7 7.1 22 13.0 S 13 17 7 9 1014.5 - 0.0
25/06:30pm 32.0 28.7 6.6 20 13.9 SSW 13 20 7 11 1014.1 - 0.0
25/06:00pm 33.0 29.3 6.3 19 14.6 SSW 15 19 8 10 1013.8 1012.3 0.0
25/05:30pm 34.0 30.4 6.9 18 15.1 SSW 15 22 8 12 1013.4 - 0.0
25/05:00pm 34.3 30.4 7.2 18 15.1 S 17 24 9 13 1013.1 - 0.0
25/04:30pm 34.8 30.5 7.0 18 15.5 SW 19 28 10 15 1012.9 - 0.0
25/04:00pm 36.0 33.4 7.8 17 16.0 WSW 11 17 6 9 1012.7 - 0.0
25/03:30pm 35.4 33.1 7.5 18 15.8 W 9 22 5 12 1012.7 - 0.0
25/03:00pm 35.5 32.5 7.5 18 15.8 SSW 13 17 7 9 1012.9 1011.4 0.0
25/02:30pm 35.6 31.9 8.0 18 15.7 WSW 17 28 9 15 1013.1 - 0.0
25/02:00pm 35.0 32.1 9.8 21 14.7 W 15 20 8 11 1013.4 - 0.0
25/01:30pm 34.7 32.8 11.8 25 13.8 SSE 13 19 7 10 1013.8 - 0.0
25/01:00pm 32.7 31.9 13.0 30 12.0 N 9 15 5 8 1014.2 - 0.0
25/12:30pm 32.6 32.2 12.9 30 11.9 NNE 7 15 4 8 1014.7 - 0.0
25/12:00pm 31.7 30.8 12.7 31 11.4 NNE 9 17 5 9 1015.3 1013.8 0.0
25/11:30am 31.3 29.7 12.7 32 11.2 N 13 20 7 11 1015.7 - 0.0
25/11:00am 30.9 30.0 12.6 32 11.0 NNE 9 17 5 9 1015.9 - 0.0
25/10:30am 29.9 28.4 10.6 30 11.2 ENE 9 19 5 10 1016.1 - 0.0
25/10:00am 28.7 26.1 9.3 29 10.9 ESE 13 22 7 12 1016.5 - 0.0
25/09:30am 28.0 25.0 9.3 31 10.5 SE 15 20 8 11 1016.7 - 0.0
25/09:00am 26.3 22.9 9.0 33 9.6 SE 17 24 9 13 1016.8 1015.3 0.0
25/08:30am 25.6 21.7 8.7 34 9.3 SE 19 28 10 15 1016.7 - 0.0
25/08:00am 24.4 20.3 8.6 36 8.6 SSE 20 28 11 15 1016.6 - 0.0
25/07:30am 22.5 20.2 8.9 42 7.4 S 11 15 6 8 1016.2 - 0.0
25/07:00am 20.0 18.4 8.9 48 5.9 S 7 9 4 5 1015.9 - 0.0
25/06:30am 18.8 17.3 9.1 53 5.2 S 7 9 4 5 1015.7 - 0.0
25/06:00am 19.4 18.6 9.8 53 5.2 SSE 4 7 2 4 1015.4 1013.9 0.0
25/05:30am 20.2 18.3 8.9 48 6.0 S 9 11 5 6 1015.0 - 0.0
25/05:00am 20.7 18.7 8.5 45 6.5 S 9 11 5 6 1014.5 - 0.0
25/04:30am 21.5 19.3 7.9 41 7.2 S 9 11 5 6 1014.4 - 0.0
25/04:00am 21.5 19.5 8.5 43 6.9 S 9 9 5 5 1014.2 - 0.0
25/03:30am 23.0 20.9 8.2 38 7.9 SSE 9 13 5 7 1013.9 - 0.0
25/03:00am 23.9 20.7 6.8 33 9.0 S 13 17 7 9 1013.9 1012.4 0.0
25/02:30am 24.2 20.9 6.5 32 9.3 S 13 17 7 9 1014.0 - 0.0
25/02:00am 23.4 20.1 6.3 33 8.9 S 13 15 7 8 1014.1 - 0.0
25/01:30am 23.7 21.6 6.5 33 9.0 S 7 9 4 5 1014.2 - 0.0
25/01:00am 24.5 22.3 6.4 31 9.5 SSE 7 9 4 5 1014.2 - 0.0
25/12:30am 24.9 21.6 6.5 30 9.7 S 13 19 7 10 1014.0 - 0.0
25/12:00am 24.7 24.0 6.9 32 9.4 CALM 0 4 0 2 1014.0 1012.5 0.0
 
Date/Time
EST
Temp
°C
App
Temp
°C
Dew
Point
Rel
Hum
%
Delta-T
°C
Wind Press
QNH
hPa
Press
MSL
hPa
Rain
since 9 am
mm
Dir
 
Spd
km/h
Gust
km/h
Spd
kts
Gust
kts
24/11:30pm 26.3 24.1 6.0 27 10.7 S 7 9 4 5 1013.9 - 0.0

Other Formats:

Comma delimited format used in spreadsheet applications
http://www.bom.gov.au/fwo/IDQ60801/IDQ60801.94510.axf

JavaScript Object Notation format (JSON) in row-major order
http://www.bom.gov.au/fwo/IDQ60801/IDQ60801.94510.json